Latest Coastal Weather Observations for Lord Howe Island

IDN60701

Issued at 5:11 am EDT Friday 20 October 2017 (issued every 10 minutes, with the page automatically refreshed every 10 minutes)

About coastal observations | Map of coastal stations | Coastal observations for NSW | Marine services | Other Formats
Station Details ID: 200839 Name: LORD HOWE ISLAND AERO Lat: -31.54 Lon: 159.08 Height: 5.0 m
Data from the previous 72 hours. | See also: Recent months at Lord Howe Island
Date/Time
EDT
Temp
°C
Wind Pressure Rain since
9am
mm
Weather Cloud Vis
km
Sea
Height
m
Swell
Dir  Spd
kts
Gust
kts
hPa Trend Height
m
Period
s
Dir
20/05:00am 18.5 NNE 7 11 1024.3 - 0.0 - Cloudy 10 - - - -
20/04:30am 18.4 NNE 10 13 1024.2 - 0.0 - Cloudy 10 - - - -
20/04:00am 18.5 ENE 9 11 1024.4 - 0.0 - Cloudy 10 - - - -
20/03:30am 18.5 NE 11 13 1024.5 - 0.0 - Cloudy 10 - - - -
20/03:00am 18.6 NNE 11 14 1024.7 - 0.0 - Cloudy 10 - - - -
20/02:30am 18.7 NE 9 11 1025.0 - 0.0 - Cloudy 10 - - - -
20/02:00am 18.7 NE 12 15 1025.2 - 0.0 - Cloudy 10 - - - -
20/01:30am 18.4 ENE 9 13 1025.5 - 0.0 - Cloudy 10 - - - -
20/01:00am 18.5 NE 12 17 1025.8 - 0.0 - Cloudy 10 - - - -
20/12:30am 18.7 NE 13 16 1026.3 - 0.0 - Cloudy 10 - - - -
20/12:00am 18.8 NE 11 15 1026.4 - 0.0 - Mostly cloudy 10 - - - -
 
Date/Time
EDT
Temp
°C
Wind Pressure Rain since
9am
mm
Weather Cloud Vis
km
Sea
Height
m
Swell
Dir  Spd
kts
Gust
kts
hPa Trend Height
m
Period
s
Dir
19/11:30pm 18.7 ENE 14 18 1026.6 - 0.0 - Cloudy 10 - - - -
19/11:00pm 18.6 ENE 12 16 1027.1 - 0.0 - Cloudy 10 - - - -
19/10:30pm 18.6 NE 11 14 1027.4 - 0.0 - Cloudy 10 - - - -
19/10:00pm 18.6 ENE 13 15 1027.7 - 0.0 - Cloudy 10 - - - -
19/09:30pm 18.5 NE 14 17 1027.7 - 0.0 - Cloudy 10 - - - -
19/09:00pm 18.6 ENE 14 20 1027.5 - 0.0 - Cloudy 10 - - - -
19/08:30pm 18.7 E 11 16 1027.7 - 0.0 - Cloudy 10 - - - -
19/08:00pm 18.6 ENE 13 18 1027.8 - 0.0 - Cloudy 10 - - - -
19/07:30pm 18.5 ENE 13 17 1027.5 - 0.0 - Cloudy 10 - - - -
19/07:00pm 18.5 ENE 13 17 1027.3 - 0.0 - Cloudy 10 - - - -
19/06:30pm 18.6 E 12 17 1026.9 - 0.0 - Partly cloudy 10 - - - -
19/06:00pm 18.6 E 13 18 1026.8 - 0.0 - Partly cloudy 10 - - - -
19/05:30pm 19.1 ENE 14 19 1026.6 - 0.0 - Cloudy 10 - - - -
19/05:00pm 19.5 ENE 15 18 1026.8 - 0.0 - Partly cloudy 10 - - - -
19/04:30pm 19.7 E 15 19 1027.1 - 0.0 - Partly cloudy 10 - - - -
19/04:00pm 19.6 E 14 17 1027.4 - 0.0 - Mostly cloudy 10 - - - -
19/03:30pm 20.1 E 12 14 1027.9 - 0.0 - Mostly cloudy 10 - - - -
19/03:00pm 20.5 E 14 17 1027.7 - 0.0 - Partly cloudy 10 - - - -
19/02:30pm 21.0 E 11 16 1028.2 - 0.0 - Partly cloudy 10 - - - -
19/02:00pm 20.7 E 15 18 1028.4 - 0.0 - Partly cloudy 10 - - - -
19/01:30pm 20.3 E 15 18 1028.8 - 0.0 - Mostly clear 10 - - - -
19/01:00pm 20.5 E 15 19 1029.0 - 0.0 - Mostly clear 10 - - - -
19/12:30pm 20.3 ENE 14 18 1029.3 - 0.0 - Mostly clear 10 - - - -
19/12:00pm 20.4 E 15 20 1029.4 - 0.0 - Cloudy 10 - - - -
19/11:30am 20.0 E 15 19 1029.5 - 0.0 - Partly cloudy 10 - - - -
19/11:00am 20.3 ENE 14 18 1029.7 - 0.0 - Partly cloudy 10 - - - -
19/10:30am 20.2 ENE 15 20 1030.0 - 0.0 - Partly cloudy 10 - - - -
19/10:00am 20.2 E 16 22 1030.1 - 0.0 - Partly cloudy 10 - - - -
19/09:30am 19.8 E 13 16 1030.4 - 0.0 - Partly cloudy 10 - - - -
19/09:00am 19.8 E 14 17 1030.3 - 0.0 - Partly cloudy 10 - - - -
19/08:30am 19.6 E 15 19 1030.2 - 0.0 - Partly cloudy 10 - - - -
19/08:00am 19.2 ENE 12 17 1030.1 - 0.0 - Mostly clear 10 - - - -
19/07:30am 19.0 E 16 18 1030.1 - 0.0 - Cloudy 10 - - - -
19/07:00am 18.9 E 14 18 1030.0 - 0.0 - Cloudy 10 - - - -
19/06:30am 18.6 E 14 18 1029.8 - 0.0 - Partly cloudy 10 - - - -
19/06:00am 18.5 E 16 19 1029.5 - 0.0 - Partly cloudy 10 - - - -
19/05:30am 18.6 ENE 11 16 1029.4 - 0.0 - Partly cloudy 10 - - - -
19/05:00am 18.4 ENE 12 16 1029.3 - 0.0 - Partly cloudy 10 - - - -
19/04:30am 18.4 E 11 14 1029.3 - 0.0 - Partly cloudy 10 - - - -
19/04:00am 18.4 E 12 17 1029.4 - 0.0 - Partly cloudy 10 - - - -
19/03:30am 18.5 E 14 17 1029.4 - 0.0 - Partly cloudy 10 - - - -
19/03:00am 18.4 ENE 14 18 1029.3 - 0.0 - Partly cloudy 10 - - - -
19/02:30am 18.4 ENE 14 18 1029.6 - 0.0 - Partly cloudy 10 - - - -
19/02:00am 18.3 ENE 12 16 1029.9 - 0.0 - Partly cloudy 10 - - - -
19/01:30am 18.2 ENE 14 18 1030.2 - 0.0 - Partly cloudy 10 - - - -
19/01:00am 18.4 ENE 16 20 1030.3 - 0.0 - Partly cloudy 10 - - - -
19/12:30am 18.6 E 16 21 1030.5 - 0.0 - Partly cloudy 10 - - - -
19/12:00am 18.8 E 19 24 1030.6 - 0.0 - Cloudy 10 - - - -
 
Date/Time
EDT
Temp
°C
Wind Pressure Rain since
9am
mm
Weather Cloud Vis
km
Sea
Height
m
Swell
Dir  Spd
kts
Gust
kts
hPa Trend Height
m
Period
s
Dir
18/11:30pm 18.8 E 14 18 1030.9 - 0.0 - Cloudy 10 - - - -
18/11:00pm 18.7 E 13 18 1031.1 - 0.0 - Partly cloudy 10 - - - -
18/10:30pm 18.7 E 17 21 1031.1 - 0.0 - Partly cloudy 10 - - - -
18/10:00pm 18.9 ENE 15 20 1031.0 - 0.0 - Partly cloudy 10 - - - -
18/09:30pm 18.7 ENE 16 21 1030.9 - 0.0 - Partly cloudy 10 - - - -
18/09:00pm 18.7 E 15 18 1030.7 - 0.0 - Partly cloudy 10 - - - -
18/08:30pm 18.4 ENE 15 20 1030.7 - 0.0 - Partly cloudy 10 - - - -
18/08:00pm 18.7 E 16 20 1030.4 - 0.0 - Partly cloudy 10 - - - -
18/07:30pm 18.7 E 15 19 1030.1 - 0.0 - Partly cloudy 10 - - - -
18/07:00pm 18.7 E 18 23 1029.7 - 0.0 - Partly cloudy 10 - - - -
18/06:30pm 18.8 E 18 23 1029.5 - 0.0 - Partly cloudy 10 - - - -
18/06:00pm 18.9 E 18 23 1029.3 - 0.0 - Cloudy 10 - - - -
18/05:30pm 19.3 E 18 22 1029.3 - 0.0 - Partly cloudy 10 - - - -
18/05:00pm 19.7 E 17 21 1029.2 - 0.0 - Partly cloudy 10 - - - -
18/04:30pm 19.7 E 17 21 1029.0 - 0.0 - Partly cloudy 10 - - - -
18/04:00pm 20.1 E 16 21 1029.0 - 0.0 - Partly cloudy 10 - - - -
18/03:30pm 20.4 E 16 20 1029.0 - 0.0 - Partly cloudy 10 - - - -
18/03:00pm 20.3 E 16 19 1029.0 - 0.0 - Mostly clear 10 - - - -
18/02:30pm 20.6 E 17 21 1029.2 - 0.0 - Mostly clear 10 - - - -
18/02:00pm 20.4 E 17 23 1029.5 - 0.0 - Partly cloudy 10 - - - -
18/01:30pm 20.7 E 17 23 1029.8 - 0.0 - Partly cloudy 10 - - - -
18/01:00pm 20.8 E 19 24 1030.1 - 0.0 - Partly cloudy 10 - - - -
18/12:30pm 20.7 E 18 21 1030.2 - 0.0 - Partly cloudy 10 - - - -
18/12:00pm 20.5 E 19 22 1030.3 - 0.0 - Mostly cloudy 10 - - - -
18/11:30am 19.8 E 19 23 1030.5 - 0.0 - Partly cloudy 10 - - - -
18/11:00am 19.7 E 19 22 1030.6 - 0.0 - Partly cloudy 10 - - - -
18/10:30am 20.1 E 21 26 1030.6 - 0.0 - Partly cloudy 10 - - - -
18/10:00am 19.4 E 19 24 1030.6 - 0.0 - Partly cloudy 10 - - - -
18/09:30am 19.3 E 19 24 1030.6 - 0.0 - Mostly clear 10 - - - -
18/09:00am 19.3 E 21 27 1030.4 - 0.0 - Cloudy 10 - - - -
18/08:30am 19.2 E 18 22 1030.2 - 0.0 - Mostly clear 10 - - - -
18/08:00am 18.7 E 21 29 1030.2 - 0.0 - Mostly clear 10 - - - -
18/07:30am 18.6 E 19 23 1029.9 - 0.0 - Cloudy 10 - - - -
18/07:00am 18.5 E 16 23 1029.7 - 0.0 - Cloudy 10 - - - -
18/06:30am 18.4 E 20 25 1029.3 - 0.0 - Cloudy 10 - - - -
18/06:00am 18.3 E 17 22 1028.9 - 0.0 - Cloudy 10 - - - -
18/05:30am 18.3 E 19 24 1028.6 - 0.0 - Cloudy 10 - - - -
18/05:00am 18.4 ENE 15 20 1028.3 - 0.0 - Cloudy 10 - - - -
18/04:30am 18.4 E 14 19 1028.4 - 0.0 - Cloudy 10 - - - -
18/04:00am 18.3 E 16 21 1028.5 - 0.0 - Cloudy 10 - - - -
18/03:30am 18.3 E 12 16 1028.7 - 0.0 - Cloudy 10 - - - -
18/03:00am 18.3 E 16 22 1028.5 - 0.0 - Cloudy 10 - - - -
18/02:30am 18.4 E 17 23 1028.5 - 0.0 - Partly cloudy 10 - - - -
18/02:00am 18.3 E 15 20 1028.6 - 0.0 - Cloudy 10 - - - -
18/01:30am 18.4 E 15 21 1029.0 - 0.0 - Cloudy 10 - - - -
18/01:00am 18.4 E 17 22 1029.3 - 0.0 - Cloudy 10 - - - -
18/12:30am 18.4 ENE 18 25 1029.4 - 0.0 - Cloudy 10 - - - -
18/12:00am 18.4 ENE 17 23 1029.7 - 0.0 - Mostly cloudy 10 - - - -
 
Date/Time
EDT
Temp
°C
Wind Pressure Rain since
9am
mm
Weather Cloud Vis
km
Sea
Height
m
Swell
Dir  Spd
kts
Gust
kts
hPa Trend Height
m
Period
s
Dir
17/11:30pm 18.4 E 18 23 1029.7 - 0.0 - Cloudy 10 - - - -
17/11:00pm 18.3 E 16 20 1029.9 - 0.0 - Cloudy 10 - - - -
17/10:30pm 18.3 E 19 25 1029.8 - 0.0 - Cloudy 10 - - - -
17/10:00pm 18.3 E 18 22 1029.6 - 0.0 - Cloudy 10 - - - -
17/09:30pm 18.2 E 19 25 1029.3 - 0.0 - Cloudy 10 - - - -
17/09:00pm 18.1 E 18 22 1029.1 - 0.0 - Cloudy 10 - - - -
17/08:30pm 18.1 E 17 23 1029.3 - 0.0 - Cloudy 10 - - - -
17/08:00pm 18.1 E 17 25 1029.2 - 0.0 - Cloudy 10 - - - -
17/07:30pm 18.2 E 20 26 1028.5 - 0.0 - Cloudy 10 - - - -
17/07:00pm 18.3 E 19 23 1028.0 - 0.0 - Cloudy 10 - - - -
17/06:30pm 18.3 E 19 23 1027.9 - 0.0 - Cloudy 10 - - - -
17/06:00pm 18.3 E 19 23 1028.2 - 0.0 - Cloudy 10 - - - -
17/05:30pm 18.4 E 18 21 1028.2 - 0.0 - Cloudy 10 - - - -
17/05:00pm 18.8 E 18 23 1027.9 - 0.0 - Cloudy 10 - - - -
17/04:30pm 18.8 E 19 24 1027.8 - 0.0 - Cloudy 10 - - - -
17/04:00pm 18.9 E 20 24 1027.6 - 0.0 - Mostly cloudy 10 - - - -
17/03:30pm 18.9 E 18 22 1028.2 - 0.0 - Mostly cloudy 10 - - - -
17/03:00pm 19.3 E 18 24 1027.5 - 0.0 - Cloudy 10 - - - -
17/02:30pm 19.5 E 20 23 1027.8 - 0.0 - Mostly cloudy 10 - - - -
17/02:00pm 19.4 E 20 24 1027.8 - 0.0 - Mostly cloudy 10 - - - -
17/01:30pm 19.2 E 21 25 1027.8 - 0.0 - Partly cloudy 10 - - - -
17/01:00pm 19.1 E 20 23 1028.1 - 0.0 - Cloudy 10 - - - -
17/12:30pm 19.6 E 20 25 1028.4 - 0.0 - Partly cloudy 10 - - - -
17/12:00pm 19.6 E 19 24 1028.5 - 0.0 - Cloudy 10 - - - -
17/11:30am 19.6 E 19 23 1028.9 - 0.0 - Mostly clear 10 - - - -
17/11:06am 19.3 NNW 16 31 1029.0 - 0.0 - Cloudy 10 - - - -
17/11:00am 19.4 CALM 0 0 1029.0 - 0.0 - Partly cloudy 10 - - - -
17/10:30am 19.1 E 18 22 1029.0 - 0.0 - Mostly clear 10 - - - -
17/10:00am 19.4 E 18 22 1028.9 - 0.0 - Mostly clear 10 - - - -
17/09:30am 19.2 E 16 21 1029.0 - 0.0 - Cloudy 10 - - - -
17/09:00am 18.9 E 17 21 1029.0 - 0.0 - Cloudy 10 - - - -
17/08:30am 18.9 E 17 22 1028.9 - 0.0 - Mostly clear 10 - - - -
17/08:00am 18.9 E 17 22 1028.7 - 0.0 - Mostly clear 10 - - - -
17/07:30am 18.4 E 16 22 1028.9 - 0.0 - Partly cloudy 10 - - - -
17/07:00am 17.9 E 17 22 1028.5 - 0.0 - Partly cloudy 10 - - - -
17/06:30am 18.2 E 17 24 1027.9 - 0.0 - Partly cloudy 10 - - - -
17/06:00am 18.1 E 17 23 1027.5 - 0.0 - Cloudy 10 - - - -
17/05:30am 18.3 E 17 20 1027.3 - 0.0 - Partly cloudy 10 - - - -

Other Formats:

Comma delimited format used in spreadsheet applications
http://www.bom.gov.au/fwo/IDN60701/IDN60701.94995.axf

JavaScript Object Notation format (JSON) in row-major order
http://www.bom.gov.au/fwo/IDN60701/IDN60701.94995.json